Time;durP1;ratioP1;P1;durP2;ratioP2;P2;SDS_P1;SDS_P2;PMS_P1;PMS_P2;Temp;Humidity;BMP_temperature;BMP_pressure;BME280_temperature;BME280_humidity;BME280_pressure;Samples;Min_cycle;Max_cycle;Signal;HPM_P1;HPM_P2
2022/06/01 00:01:59;;;;;;;10.23;9.27;;;;;;;25.30;49.01;94668.13;5082874;28;20953;-73
2022/06/01 00:04:25;;;;;;;9.50;8.67;;;;;;;25.22;49.47;94663.38;5084390;28;20184;-73
2022/06/01 00:06:51;;;;;;;9.30;8.30;;;;;;;24.69;51.05;94661.53;5085744;28;20412;-73
2022/06/01 00:09:17;;;;;;;11.53;8.70;;;;;;;24.87;50.72;94661.88;5083804;28;20585;-73
2022/06/01 00:11:42;;;;;;;10.53;8.97;;;;;;;25.08;50.68;94654.44;5084943;28;20247;-73
2022/06/01 00:14:08;;;;;;;10.70;7.93;;;;;;;24.56;51.98;94656.84;5083289;28;20190;-72
2022/06/01 00:16:33;;;;;;;9.93;8.83;;;;;;;25.18;51.15;94661.56;5087724;28;20185;-73
2022/06/01 00:18:59;;;;;;;10.87;9.77;;;;;;;24.98;50.59;94668.72;5088104;28;20182;-73
2022/06/01 00:21:25;;;;;;;8.47;7.67;;;;;;;25.28;50.51;94666.81;5086926;28;20192;-73
2022/06/01 00:23:50;;;;;;;10.20;8.67;;;;;;;25.04;49.90;94664.94;5084628;28;20260;-74
2022/06/01 00:26:15;;;;;;;8.90;8.20;;;;;;;24.46;51.02;94673.75;5084036;28;20201;-72
2022/06/01 00:28:41;;;;;;;8.33;7.60;;;;;;;24.25;51.79;94673.13;5080651;28;20184;-72
2022/06/01 00:31:06;;;;;;;11.10;9.00;;;;;;;24.78;50.54;94668.97;5083312;28;20185;-73
2022/06/01 00:33:32;;;;;;;10.87;9.20;;;;;;;24.91;50.04;94668.28;5089066;28;20224;-72
2022/06/01 00:35:57;;;;;;;9.70;8.80;;;;;;;24.48;51.44;94670.81;5083081;28;20227;-73
2022/06/01 00:38:22;;;;;;;11.37;9.10;;;;;;;24.75;50.07;94670.31;5088597;28;20185;-73
2022/06/01 00:40:49;;;;;;;12.23;8.70;;;;;;;23.97;52.18;94666.66;5094285;28;20248;-72
2022/06/01 00:43:44;;;;;;;10.17;9.17;;;;;;;23.88;52.28;94661.09;5085842;28;20259;-72
2022/06/01 00:46:09;;;;;;;10.90;9.30;;;;;;;24.19;51.56;94666.25;5086411;28;20444;-72
2022/06/01 00:48:39;;;;;;;9.33;8.40;;;;;;;24.52;51.21;94661.16;5087727;28;20515;-73
2022/06/01 00:51:07;;;;;;;8.70;7.90;;;;;;;24.86;50.93;94660.31;5086957;28;22765;-73
2022/06/01 00:53:35;;;;;;;11.03;7.57;;;;;;;25.06;50.38;94668.13;5079624;28;20469;-73
2022/06/01 00:56:06;;;;;;;9.33;8.53;;;;;;;25.20;50.12;94662.88;5083613;28;20446;-73
2022/06/01 00:58:39;;;;;;;11.47;8.80;;;;;;;25.09;49.58;94659.50;5085521;28;20404;-73
2022/06/01 01:01:08;;;;;;;10.50;8.80;;;;;;;25.25;49.29;94659.34;5084920;28;20491;-73
2022/06/01 01:03:37;;;;;;;10.30;8.67;;;;;;;25.15;49.49;94657.56;5088953;28;20420;-74
2022/06/01 01:06:10;;;;;;;10.70;9.10;;;;;;;25.18;49.51;94656.22;5091511;28;20427;-73
2022/06/01 01:08:35;;;;;;;11.70;8.40;;;;;;;23.99;51.85;94658.38;5088979;28;20419;-72
2022/06/01 01:11:00;;;;;;;10.43;9.43;;;;;;;24.16;51.28;94653.41;5079981;28;20516;-73
2022/06/01 01:13:26;;;;;;;10.90;8.73;;;;;;;24.63;50.36;94656.53;5079532;28;20205;-73
2022/06/01 01:15:54;;;;;;;9.63;8.80;;;;;;;24.93;49.96;94650.84;5079909;28;20185;-73
2022/06/01 01:18:30;;;;;;;9.00;8.13;;;;;;;25.08;49.67;94639.19;5083842;28;20178;-73
2022/06/01 01:21:46;;;;;;;9.70;7.70;;;;;;;24.96;50.00;94635.28;5081489;28;20946;-73
2022/06/01 01:24:33;;;;;;;9.90;8.97;;;;;;;25.65;47.80;94635.78;5085225;28;20448;-73
2022/06/01 01:26:58;;;;;;;9.67;8.80;;;;;;;25.01;49.09;94632.56;5087323;28;20428;-73
2022/06/01 01:29:42;;;;;;;11.27;9.97;;;;;;;25.01;49.14;94619.97;5088647;28;20459;-73
2022/06/01 01:32:10;;;;;;;8.77;8.07;;;;;;;24.78;49.84;94628.81;5083396;28;20225;-73
2022/06/01 01:34:37;;;;;;;9.73;8.90;;;;;;;25.07;50.01;94618.81;5092221;28;20468;-73
2022/06/01 01:37:07;;;;;;;9.40;8.60;;;;;;;24.98;49.50;94617.84;5078023;28;20490;-73
2022/06/01 01:39:35;;;;;;;9.27;8.43;;;;;;;25.12;49.21;94613.41;5092997;28;20439;-73
2022/06/01 01:42:02;;;;;;;9.77;8.70;;;;;;;25.21;49.56;94607.41;5089183;28;20419;-73
2022/06/01 01:44:40;;;;;;;9.70;8.70;;;;;;;25.25;49.53;94603.91;5087668;28;20428;-74
2022/06/01 01:47:06;;;;;;;8.67;7.97;;;;;;;25.26;49.33;94602.81;5078342;28;20906;-72
2022/06/01 01:49:34;;;;;;;8.90;8.00;;;;;;;25.51;48.99;94607.03;5087882;28;20474;-72
2022/06/01 01:52:07;;;;;;;8.73;7.87;;;;;;;25.60;48.65;94617.09;5076667;28;20170;-72
2022/06/01 01:54:46;;;;;;;12.20;8.90;;;;;;;25.60;48.34;94615.22;5084198;28;20471;-73
2022/06/01 01:57:18;;;;;;;11.13;8.03;;;;;;;25.65;48.07;94611.66;5081526;28;20427;-73
2022/06/01 02:00:15;;;;;;;7.67;7.07;;;;;;;25.57;48.40;94621.16;5094524;28;20548;-72
2022/06/01 02:02:52;;;;;;;10.23;8.53;;;;;;;25.60;48.34;94622.47;5081533;28;20428;-73
2022/06/01 02:06:05;;;;;;;8.27;7.47;;;;;;;25.25;48.92;94629.88;5094875;28;20470;-72
2022/06/01 02:08:47;;;;;;;10.87;8.53;;;;;;;25.42;48.34;94619.50;5090894;28;20439;-74
2022/06/01 02:14:13;;;;;;;9.23;8.00;;;;;;;24.79;49.78;94625.03;5086849;28;20482;-73
2022/06/01 02:16:44;;;;;;;7.40;6.60;;;;;;;24.73;49.57;94630.44;5089216;28;20465;-72
2022/06/01 02:19:16;;;;;;;8.17;6.63;;;;;;;24.55;48.88;94628.50;5080522;28;20462;-73
2022/06/01 02:21:41;;;;;;;9.87;7.90;;;;;;;24.27;49.62;94632.75;5085878;28;20439;-72
2022/06/01 02:24:07;;;;;;;8.60;7.70;;;;;;;24.47;49.57;94621.88;5084915;28;20432;-74
2022/06/01 02:26:34;;;;;;;8.37;7.53;;;;;;;24.66;49.79;94624.66;5085109;28;20200;-73
2022/06/01 02:29:06;;;;;;;12.47;8.60;;;;;;;24.82;49.42;94627.16;5090948;28;20411;-73
2022/06/01 02:31:34;;;;;;;10.73;9.63;;;;;;;24.60;50.24;94633.00;5084062;28;20503;-73
2022/06/01 02:34:03;;;;;;;10.23;9.23;;;;;;;24.80;49.21;94630.13;5085730;28;20469;-73
2022/06/01 02:36:30;;;;;;;13.70;9.37;;;;;;;24.60;49.68;94635.69;5085202;28;20435;-73
2022/06/01 02:38:57;;;;;;;10.43;9.07;;;;;;;24.87;49.62;94643.16;5086934;28;20434;-72
2022/06/01 02:44:07;;;;;;;11.90;10.70;;;;;;;24.70;49.85;94641.72;5085670;28;20403;-72
2022/06/01 02:46:33;;;;;;;13.10;11.90;;;;;;;24.56;50.00;94646.13;5086938;28;20428;-71
2022/06/01 02:49:00;;;;;;;11.20;10.10;;;;;;;24.38;50.91;94644.94;5078079;28;20288;-72
2022/06/01 02:51:26;;;;;;;12.20;10.87;;;;;;;24.83;49.91;94642.91;5090889;28;20569;-73
2022/06/01 02:53:51;;;;;;;10.90;9.90;;;;;;;24.87;49.69;94643.16;5085484;28;20466;-74
2022/06/01 02:56:16;;;;;;;13.23;12.03;;;;;;;25.03;49.04;94633.88;5090149;28;20284;-72
2022/06/01 02:58:43;;;;;;;12.27;11.17;;;;;;;24.69;49.99;94640.13;5086037;28;20643;-73
2022/06/01 03:01:09;;;;;;;13.87;12.07;;;;;;;24.68;49.69;94643.91;5089649;28;20245;-73
2022/06/01 03:03:35;;;;;;;13.53;10.60;;;;;;;24.68;50.13;94643.06;5085512;28;20434;-73
2022/06/01 03:06:01;;;;;;;13.57;12.23;;;;;;;24.62;50.25;94647.69;5088480;28;20531;-72
2022/06/01 03:08:26;;;;;;;13.50;12.13;;;;;;;24.51;50.26;94643.47;5085752;28;20443;-72
2022/06/01 03:10:53;;;;;;;12.20;11.07;;;;;;;24.63;49.97;94651.97;5087009;28;20194;-73
2022/06/01 03:13:23;;;;;;;17.70;11.73;;;;;;;24.87;49.32;94651.19;5089263;28;20223;-72
2022/06/01 03:15:49;;;;;;;12.80;11.50;;;;;;;24.39;50.54;94661.78;5079235;28;20522;-73
2022/06/01 03:18:15;;;;;;;14.83;12.67;;;;;;;24.32;50.57;94656.75;5087360;28;20465;-73
2022/06/01 03:20:40;;;;;;;15.90;13.10;;;;;;;24.43;50.54;94657.47;5088366;28;20434;-73
2022/06/01 03:23:06;;;;;;;13.13;11.83;;;;;;;24.54;50.42;94661.69;5089695;28;20254;-72
2022/06/01 03:25:31;;;;;;;15.40;11.60;;;;;;;24.34;50.54;94668.78;5086954;28;20205;-72
2022/06/01 03:27:59;;;;;;;13.43;12.13;;;;;;;24.68;50.04;94669.84;5084836;28;20238;-73
2022/06/01 03:30:26;;;;;;;18.10;14.80;;;;;;;24.58;49.93;94662.72;5087429;28;20181;-72
2022/06/01 03:32:53;;;;;;;16.70;15.00;;;;;;;24.73;49.87;94673.25;5080830;28;20989;-72
2022/06/01 03:35:22;;;;;;;16.80;15.10;;;;;;;24.24;50.46;94671.53;5085834;28;20467;-72
2022/06/01 03:37:48;;;;;;;17.83;16.03;;;;;;;24.66;49.94;94672.00;5088087;28;20427;-72
2022/06/01 03:40:15;;;;;;;16.60;14.30;;;;;;;24.55;50.07;94671.31;5090413;28;20563;-72
2022/06/01 03:42:40;;;;;;;16.17;14.57;;;;;;;24.87;49.72;94665.38;5085674;28;20181;-72
2022/06/01 03:47:51;;;;;;;15.90;14.30;;;;;;;24.84;49.80;94671.28;5085401;28;20184;-72
2022/06/01 03:50:17;;;;;;;16.80;15.20;;;;;;;24.38;50.71;94671.72;5085544;28;20431;-72
2022/06/01 03:52:44;;;;;;;16.63;15.00;;;;;;;24.93;49.58;94671.47;5073617;28;20248;-72
2022/06/01 03:55:10;;;;;;;16.50;14.90;;;;;;;25.01;49.58;94678.88;5095950;28;20501;-72
2022/06/01 03:57:36;;;;;;;15.00;13.47;;;;;;;25.02;48.77;94667.06;5079936;28;20419;-72
2022/06/01 04:00:05;;;;;;;15.03;13.50;;;;;;;24.79;49.24;94670.53;5092933;28;20449;-72
2022/06/01 04:02:30;;;;;;;17.00;14.87;;;;;;;25.04;48.82;94672.97;5078049;28;20432;-72
2022/06/01 04:04:58;;;;;;;27.53;16.73;;;;;;;25.08;48.39;94674.00;5086056;28;20434;-72
2022/06/01 04:07:24;;;;;;;18.90;14.60;;;;;;;24.98;48.10;94676.75;5084336;28;20168;-72
2022/06/01 04:09:50;;;;;;;18.50;16.50;;;;;;;24.79;49.19;94667.88;5075160;28;20424;-72
2022/06/01 04:12:15;;;;;;;18.17;16.10;;;;;;;24.96;49.19;94670.09;5079052;28;20412;-72
2022/06/01 04:14:40;;;;;;;20.40;18.40;;;;;;;24.63;49.94;94673.38;5088870;28;20284;-73
2022/06/01 04:17:06;;;;;;;19.40;16.23;;;;;;;25.06;49.50;94681.50;5096275;28;20177;-72
2022/06/01 04:19:31;;;;;;;16.73;15.07;;;;;;;25.51;48.61;94675.91;5087199;28;20192;-72
2022/06/01 04:21:57;;;;;;;18.90;16.93;;;;;;;25.86;47.77;94671.97;5089185;28;20177;-73
2022/06/01 04:24:27;;;;;;;18.60;16.53;;;;;;;25.58;47.22;94676.38;5086510;28;20485;-72
2022/06/01 04:26:52;;;;;;;18.60;16.60;;;;;;;25.68;47.67;94675.44;5092724;28;20162;-73
2022/06/01 04:29:18;;;;;;;17.83;16.13;;;;;;;25.60;47.75;94678.75;5086089;28;21214;-73
2022/06/01 04:31:44;;;;;;;18.67;16.67;;;;;;;25.30;47.94;94670.81;5083523;28;20217;-73
2022/06/01 04:34:10;;;;;;;18.40;16.00;;;;;;;25.59;47.48;94686.00;5086001;28;20240;-74
2022/06/01 04:36:36;;;;;;;20.40;18.37;;;;;;;25.71;47.43;94674.84;5086511;28;20404;-73
2022/06/01 04:39:01;;;;;;;20.43;16.30;;;;;;;26.05;46.62;94679.25;5088273;28;20169;-73
2022/06/01 04:41:27;;;;;;;17.67;16.07;;;;;;;26.25;46.08;94678.91;5098478;28;20185;-73
2022/06/01 04:43:53;;;;;;;18.13;15.40;;;;;;;26.18;46.48;94675.00;5078996;28;20171;-73
2022/06/01 04:46:18;;;;;;;17.20;14.17;;;;;;;26.32;46.41;94677.75;5087568;28;20189;-72
2022/06/01 04:48:44;;;;;;;18.47;16.53;;;;;;;26.50;45.56;94682.25;5083652;28;20178;-72
2022/06/01 04:51:09;;;;;;;18.60;16.90;;;;;;;26.66;45.63;94683.63;5080625;28;21402;-73
2022/06/01 04:53:34;;;;;;;17.87;16.03;;;;;;;26.29;45.53;94688.00;5083287;28;20189;-72
2022/06/01 04:56:00;;;;;;;19.77;15.90;;;;;;;25.76;46.81;94682.03;5087254;28;20174;-73
2022/06/01 04:58:25;;;;;;;16.40;14.80;;;;;;;26.04;45.97;94688.34;5083126;28;20252;-73
2022/06/01 05:00:51;;;;;;;16.30;13.10;;;;;;;26.35;45.70;94690.56;5084532;28;20174;-73
2022/06/01 05:03:16;;;;;;;14.33;13.03;;;;;;;26.23;45.09;94696.41;5082599;28;20185;-73
2022/06/01 05:05:42;;;;;;;15.27;12.73;;;;;;;25.86;46.43;94693.41;5083007;28;20190;-73
2022/06/01 05:08:10;;;;;;;13.13;11.90;;;;;;;25.88;46.23;94695.81;5081086;28;20204;-73
2022/06/01 05:10:36;;;;;;;17.53;14.10;;;;;;;26.18;45.55;94699.97;5083460;28;20174;-73
2022/06/01 05:13:02;;;;;;;15.83;14.23;;;;;;;26.18;45.64;94701.84;5084280;28;20938;-73
2022/06/01 05:15:27;;;;;;;16.27;13.93;;;;;;;25.92;46.46;94696.06;5082729;28;20265;-73
2022/06/01 05:17:52;;;;;;;26.93;16.00;;;;;;;25.28;47.79;94704.34;5081418;28;20614;-73
2022/06/01 05:20:18;;;;;;;18.70;15.50;;;;;;;26.35;46.65;94701.31;5083682;28;20262;-73
2022/06/01 05:22:44;;;;;;;18.00;15.33;;;;;;;26.76;45.53;94704.16;5084245;28;20177;-73
2022/06/01 05:25:10;;;;;;;17.20;15.40;;;;;;;25.22;49.14;94705.44;5081473;28;20165;-73
2022/06/01 05:27:35;;;;;;;28.67;17.57;;;;;;;25.95;47.22;94696.25;5079469;28;20597;-73
2022/06/01 05:30:02;;;;;;;18.63;16.63;;;;;;;25.51;47.67;94703.50;5092874;28;20427;-74
2022/06/01 05:32:27;;;;;;;21.73;17.90;;;;;;;26.06;46.65;94703.06;5080903;28;20296;-73
2022/06/01 05:34:53;;;;;;;18.80;16.87;;;;;;;25.81;47.14;94706.88;5085708;28;20475;-73
2022/06/01 05:37:19;;;;;;;19.10;16.67;;;;;;;25.95;46.74;94700.81;5088301;28;20174;-73
2022/06/01 05:39:44;;;;;;;25.60;19.30;;;;;;;26.45;47.03;94698.47;5082603;28;20174;-74
2022/06/01 05:42:11;;;;;;;25.40;18.03;;;;;;;27.21;44.47;94687.50;5074335;28;20182;-73
2022/06/01 05:44:36;;;;;;;29.83;19.13;;;;;;;26.75;45.55;94696.38;5087876;28;20236;-73
2022/06/01 05:47:03;;;;;;;19.70;17.70;;;;;;;27.78;43.92;94689.84;5089214;28;20441;-73
2022/06/01 05:49:29;;;;;;;18.47;16.70;;;;;;;27.65;43.62;94688.78;5089203;28;20189;-73
2022/06/01 05:51:55;;;;;;;16.63;14.60;;;;;;;27.85;43.20;94682.19;5080319;28;20503;-73
2022/06/01 05:54:21;;;;;;;19.33;16.80;;;;;;;27.27;44.58;94684.44;5087882;28;20473;-73
2022/06/01 05:56:46;;;;;;;19.90;16.73;;;;;;;27.70;43.92;94680.63;5080566;28;20178;-74
2022/06/01 05:59:13;;;;;;;17.97;16.03;;;;;;;28.08;42.61;94688.41;5079028;28;20210;-72
2022/06/01 06:01:39;;;;;;;17.30;15.30;;;;;;;28.13;42.67;94690.97;5084279;28;20193;-73
2022/06/01 06:04:06;;;;;;;17.33;14.93;;;;;;;28.85;41.41;94689.25;5078505;28;20441;-73
2022/06/01 06:06:32;;;;;;;15.40;13.80;;;;;;;29.35;41.00;94682.84;5081292;28;20432;-73
2022/06/01 06:09:02;;;;;;;15.77;13.60;;;;;;;29.54;40.03;94682.59;5081003;28;20424;-73
2022/06/01 06:11:30;;;;;;;23.50;14.30;;;;;;;29.31;39.96;94685.38;5086095;28;20438;-73
2022/06/01 06:14:00;;;;;;;16.80;13.63;;;;;;;29.50;40.05;94689.69;5070480;28;20445;-73
2022/06/01 06:16:28;;;;;;;15.30;13.80;;;;;;;29.58;39.46;94688.94;5086579;28;20432;-73
2022/06/01 06:18:57;;;;;;;19.37;13.20;;;;;;;29.87;39.16;94693.78;5087261;28;20427;-73
2022/06/01 06:21:28;;;;;;;15.87;14.00;;;;;;;29.18;39.61;94694.38;5083050;28;20439;-73
2022/06/01 06:24:03;;;;;;;14.57;13.03;;;;;;;29.62;39.37;94689.91;5084190;28;20408;-74
2022/06/01 06:26:29;;;;;;;12.80;11.53;;;;;;;29.75;38.54;94690.91;5082934;28;20482;-73
2022/06/01 06:28:55;;;;;;;13.30;11.47;;;;;;;30.12;38.19;94680.63;5085617;28;20523;-74
2022/06/01 06:31:20;;;;;;;11.80;10.70;;;;;;;30.20;37.81;94682.50;5084350;28;20185;-73
2022/06/01 06:33:46;;;;;;;16.50;10.97;;;;;;;30.26;37.40;94677.75;5085344;28;20460;-73
2022/06/01 06:36:13;;;;;;;14.60;11.70;;;;;;;30.00;37.77;94677.75;5085984;28;20209;-73
2022/06/01 06:38:39;;;;;;;11.80;10.50;;;;;;;30.28;37.49;94683.63;5086807;28;20172;-74
2022/06/01 06:44:26;;;;;;;15.60;11.00;;;;;;;31.05;36.47;94678.44;5078006;28;20434;-73
2022/06/01 06:46:52;;;;;;;12.80;10.87;;;;;;;31.16;35.57;94679.66;5085425;28;20435;-73
2022/06/01 06:49:17;;;;;;;15.97;11.90;;;;;;;31.07;35.98;94676.22;5078754;28;20181;-73
2022/06/01 06:51:43;;;;;;;13.63;12.30;;;;;;;30.83;35.59;94663.22;5085773;28;20242;-73
2022/06/01 06:54:08;;;;;;;12.27;11.00;;;;;;;30.85;35.78;94669.91;5075842;28;20290;-73
2022/06/01 07:13:27;;;;;;;12.67;10.33;;;;;;;30.83;35.81;94658.63;5084567;28;20510;-73
2022/06/01 07:16:01;;;;;;;11.70;10.70;;;;;;;31.18;35.41;94653.09;5083893;28;20962;-73
2022/06/01 07:18:26;;;;;;;16.90;15.20;;;;;;;30.77;36.12;94659.88;5077887;28;20448;-73
2022/06/01 07:20:52;;;;;;;13.33;11.27;;;;;;;31.17;35.48;94666.94;5078953;28;20444;-73
2022/06/01 07:23:17;;;;;;;11.87;10.13;;;;;;;31.41;34.93;94669.06;5075845;28;20181;-73
2022/06/01 07:25:49;;;;;;;11.00;9.90;;;;;;;31.93;33.90;94663.34;5073249;28;20201;-73
2022/06/01 07:28:14;;;;;;;12.07;10.97;;;;;;;32.26;33.90;94659.94;5079433;28;20178;-72
2022/06/01 07:30:40;;;;;;;11.37;9.60;;;;;;;31.87;34.26;94651.94;5082403;28;20427;-73
2022/06/01 07:33:05;;;;;;;13.97;11.60;;;;;;;31.98;34.11;94651.53;5066841;28;20225;-73
2022/06/01 07:43:07;;;;;;;15.47;12.90;;;;;;;30.94;36.03;94649.06;5073025;28;20422;-73
2022/06/01 07:45:35;;;;;;;12.67;11.43;;;;;;;31.72;34.56;94652.53;5081005;28;20495;-73
2022/06/01 07:48:02;;;;;;;17.50;12.33;;;;;;;31.54;35.17;94651.81;5082735;28;20435;-73
2022/06/01 07:57:35;;;;;;;13.93;12.23;;;;;;;31.91;35.37;94649.38;5081544;28;20916;-74
2022/06/01 08:00:00;;;;;;;13.90;12.53;;;;;;;31.05;36.69;94648.69;5085445;28;20408;-73
2022/06/01 08:02:26;;;;;;;14.03;12.60;;;;;;;31.30;35.60;94658.63;5083393;28;20468;-73
2022/06/01 08:04:51;;;;;;;21.93;13.73;;;;;;;31.19;36.69;94651.19;5085810;28;20627;-73
2022/06/01 08:07:17;;;;;;;14.00;12.70;;;;;;;32.23;35.02;94655.97;5083469;28;20182;-73
2022/06/01 08:09:42;;;;;;;16.00;13.63;;;;;;;32.76;34.45;94653.56;5085555;28;20170;-73
2022/06/01 08:14:52;;;;;;;15.90;13.73;;;;;;;32.27;34.67;94656.06;5081872;28;20228;-73
2022/06/01 08:17:18;;;;;;;14.93;11.93;;;;;;;32.17;35.03;94664.63;5083698;28;20433;-74
2022/06/01 08:19:46;;;;;;;13.67;12.23;;;;;;;31.28;36.49;94657.34;5081774;28;20181;-74
2022/06/01 08:22:12;;;;;;;14.67;11.37;;;;;;;31.59;36.29;94656.25;5083833;28;20277;-73
2022/06/01 08:24:37;;;;;;;16.17;13.50;;;;;;;32.43;35.45;94653.56;5083652;28;20421;-73
2022/06/01 08:27:03;;;;;;;13.43;12.13;;;;;;;32.45;34.45;94646.66;5077080;28;20181;-76
2022/06/01 08:29:28;;;;;;;14.37;12.20;;;;;;;32.13;35.63;94650.16;5078270;28;20171;-74
2022/06/01 08:31:54;;;;;;;14.83;10.00;;;;;;;32.51;34.32;94657.31;5075749;28;20190;-73
2022/06/01 08:34:19;;;;;;;13.60;9.87;;;;;;;32.04;35.18;94651.03;5072326;28;20268;-74
2022/06/01 08:36:46;;;;;;;14.40;12.17;;;;;;;32.64;34.42;94650.81;5096226;28;20183;-74
2022/06/01 08:39:12;;;;;;;16.73;12.00;;;;;;;33.04;33.57;94652.94;5076618;28;20170;-73
2022/06/01 08:41:39;;;;;;;13.03;11.80;;;;;;;33.50;32.71;94650.13;5081759;28;20440;-73
2022/06/01 08:44:31;;;;;;;13.07;11.53;;;;;;;33.54;31.87;94656.47;5083381;28;20246;-74
2022/06/01 08:47:01;;;;;;;15.93;11.30;;;;;;;33.33;31.98;94651.94;5079028;28;20425;-73
2022/06/01 08:49:28;;;;;;;12.10;10.40;;;;;;;34.33;30.84;94647.97;5078204;28;20511;-74
2022/06/01 08:51:55;;;;;;;14.20;10.60;;;;;;;33.20;32.14;94653.06;5075896;28;20516;-74
2022/06/01 08:54:22;;;;;;;11.33;10.07;;;;;;;32.62;33.57;94644.94;5082399;28;20465;-74
2022/06/01 08:56:55;;;;;;;11.03;10.03;;;;;;;34.03;31.40;94646.34;5080298;28;20435;-74
2022/06/01 08:59:49;;;;;;;15.70;10.63;;;;;;;34.46;30.37;94640.53;5079690;28;20416;-73
2022/06/01 09:02:39;;;;;;;12.23;9.63;;;;;;;34.27;29.79;94649.34;5083467;28;20506;-74
2022/06/01 09:05:23;;;;;;;11.10;9.10;;;;;;;35.09;29.06;94642.56;5065713;28;20409;-73
2022/06/01 09:08:11;;;;;;;12.40;8.57;;;;;;;34.27;29.97;94647.41;5067485;28;20422;-73
2022/06/01 09:11:04;;;;;;;10.37;8.93;;;;;;;34.27;29.52;94644.69;5078957;28;20431;-73
2022/06/01 09:13:59;;;;;;;8.50;7.20;;;;;;;34.02;28.68;94639.31;5081272;28;20435;-73
2022/06/01 09:16:38;;;;;;;9.87;6.23;;;;;;;34.55;28.09;94641.19;5073974;28;20447;-74
2022/06/01 09:19:07;;;;;;;6.00;5.40;;;;;;;35.53;26.72;94642.47;5077253;28;20887;-74
2022/06/01 09:24:22;;;;;;;6.13;5.53;;;;;;;33.41;28.20;94632.06;5080108;28;20464;-73
2022/06/01 09:27:03;;;;;;;9.80;6.43;;;;;;;34.23;28.73;94635.66;5079698;28;20477;-73
2022/06/01 09:29:32;;;;;;;8.57;6.97;;;;;;;34.82;27.85;94638.78;5084361;28;20449;-74
2022/06/01 09:32:02;;;;;;;7.10;6.40;;;;;;;35.34;26.90;94632.31;5082110;28;20499;-74
2022/06/01 09:34:40;;;;;;;5.73;4.63;;;;;;;35.76;24.06;94629.00;5071372;28;20480;-74
2022/06/01 09:37:20;;;;;;;7.77;6.37;;;;;;;33.76;27.82;94630.78;5073254;28;20432;-74
2022/06/01 09:39:53;;;;;;;9.07;6.00;;;;;;;35.51;26.18;94633.84;5079327;28;20490;-73
2022/06/01 09:42:25;;;;;;;8.10;5.63;;;;;;;35.32;25.84;94629.16;5097190;28;20428;-73
2022/06/01 09:44:53;;;;;;;7.30;5.33;;;;;;;35.77;25.56;94625.13;5086491;28;20419;-81
2022/06/01 09:47:36;;;;;;;5.80;5.33;;;;;;;35.81;24.48;94626.00;5087702;28;20459;-80
2022/06/01 09:50:03;;;;;;;6.90;6.33;;;;;;;34.47;27.10;94618.47;5087591;28;20463;-81
2022/06/01 09:52:34;;;;;;;7.00;5.13;;;;;;;35.44;26.06;94622.78;5086028;28;21015;-81
2022/06/01 09:55:21;;;;;;;5.47;4.97;;;;;;;35.89;25.18;94618.75;5082638;28;20452;-81
2022/06/01 09:58:07;;;;;;;4.40;4.00;;;;;;;36.07;24.81;94606.28;5088296;28;20476;-80
2022/06/01 10:06:30;;;;;;;7.73;5.90;;;;;;;37.33;23.55;94608.56;5088198;28;20431;-80
2022/06/01 10:08:58;;;;;;;9.40;5.83;;;;;;;37.00;23.11;94607.25;5086799;28;20439;-81
2022/06/01 10:11:33;;;;;;;6.93;4.43;;;;;;;37.34;22.95;94617.53;5086101;28;20431;-81
2022/06/01 10:14:05;;;;;;;9.80;5.53;;;;;;;35.20;24.08;94613.72;5086865;28;20501;-80
2022/06/01 10:16:46;;;;;;;9.93;5.20;;;;;;;34.94;24.73;94606.84;5086600;28;20549;-81
2022/06/01 10:19:16;;;;;;;4.20;3.87;;;;;;;34.97;24.49;94602.66;5087653;28;20415;-80
2022/06/01 10:22:16;;;;;;;5.20;4.20;;;;;;;35.82;23.31;94615.88;5086514;28;20428;-81
2022/06/01 10:24:51;;;;;;;5.47;3.73;;;;;;;34.83;23.91;94605.00;5079822;28;20876;-81
2022/06/01 10:27:21;;;;;;;5.13;3.13;;;;;;;36.40;22.15;94607.72;5087933;28;20532;-81
2022/06/01 10:29:52;;;;;;;3.73;3.40;;;;;;;37.19;21.56;94605.63;5086352;28;20511;-81
2022/06/01 10:32:32;;;;;;;7.47;4.30;;;;;;;37.28;21.94;94611.59;5087492;28;20460;-81
2022/06/01 10:35:07;;;;;;;5.20;4.10;;;;;;;37.38;21.83;94605.53;5073150;28;20455;-80
2022/06/01 10:37:58;;;;;;;5.27;4.00;;;;;;;36.27;22.50;94604.34;5087121;28;20507;-80
2022/06/01 10:40:52;;;;;;;4.37;3.97;;;;;;;36.25;22.41;94603.94;5076262;28;20434;-81
2022/06/01 10:43:39;;;;;;;5.97;3.87;;;;;;;37.37;22.17;94603.16;5087235;28;20423;-80
2022/06/01 10:46:23;;;;;;;5.77;3.37;;;;;;;35.97;22.45;94596.75;5083809;28;20424;-80
2022/06/01 10:49:17;;;;;;;4.27;3.83;;;;;;;36.19;22.30;94602.66;5085793;28;20412;-80
2022/06/01 10:51:43;;;;;;;7.17;4.27;;;;;;;37.47;21.23;94602.50;5080365;28;20443;-81
2022/06/01 10:54:34;;;;;;;9.10;3.93;;;;;;;37.81;21.10;94597.16;5085167;28;20519;-81
2022/06/01 10:57:00;;;;;;;4.60;4.20;;;;;;;37.60;21.09;94594.91;5083231;28;20452;-81
2022/06/01 10:59:26;;;;;;;4.87;3.73;;;;;;;36.52;21.95;94593.94;5084843;28;20907;-81
2022/06/01 11:02:40;;;;;;;4.80;3.93;;;;;;;35.80;23.00;94591.75;5080923;28;20433;-81
2022/06/01 11:05:14;;;;;;;7.87;3.67;;;;;;;36.58;20.87;94591.72;5081793;28;20181;-81
2022/06/01 11:07:52;;;;;;;9.13;3.60;;;;;;;36.90;21.06;94588.75;5086942;28;20526;-81
2022/06/01 11:10:39;;;;;;;5.43;4.23;;;;;;;37.40;20.94;94580.59;5084972;28;20514;-81
2022/06/01 11:13:23;;;;;;;6.10;3.90;;;;;;;36.66;21.05;94574.34;5086788;28;20436;-81
2022/06/01 11:16:06;;;;;;;4.03;3.50;;;;;;;36.70;21.74;94572.44;5087219;28;20416;-81
2022/06/01 11:19:01;;;;;;;5.90;3.90;;;;;;;36.96;21.05;94581.84;5086329;28;20463;-81
2022/06/01 11:21:57;;;;;;;4.13;3.60;;;;;;;37.16;20.73;94571.66;5077821;28;20452;-81
2022/06/01 11:24:29;;;;;;;4.70;3.57;;;;;;;37.45;20.51;94570.13;5076803;28;20487;-81
2022/06/01 11:26:54;;;;;;;3.63;3.00;;;;;;;38.17;19.84;94565.63;5075879;28;20428;-81
2022/06/01 11:29:44;;;;;;;6.90;3.20;;;;;;;37.19;20.57;94570.91;5086590;28;20487;-81
2022/06/01 11:32:16;;;;;;;3.77;3.27;;;;;;;37.74;20.70;94567.81;5068327;28;20177;-82
2022/06/01 11:35:05;;;;;;;9.83;3.10;;;;;;;38.70;19.72;94555.59;5086250;28;20513;-81
2022/06/01 11:37:36;;;;;;;6.40;3.17;;;;;;;38.90;18.68;94558.91;5080873;28;20463;-81
2022/06/01 11:40:07;;;;;;;7.17;4.07;;;;;;;38.50;19.73;94555.78;5071839;28;20427;-81
2022/06/01 11:42:47;;;;;;;3.23;3.03;;;;;;;39.13;18.74;94561.44;5085013;28;20436;-81
2022/06/01 11:45:28;;;;;;;4.43;3.40;;;;;;;37.46;20.01;94558.03;5085653;28;20961;-81
2022/06/01 11:48:00;;;;;;;6.63;2.60;;;;;;;36.38;20.01;94554.72;5086770;28;20431;-81
2022/06/01 11:51:03;;;;;;;8.83;3.10;;;;;;;37.60;19.08;94545.72;5081513;28;20497;-80
2022/06/01 11:53:36;;;;;;;6.67;2.60;;;;;;;37.45;18.50;94545.56;5071914;28;20419;-80
2022/06/01 11:56:34;;;;;;;6.07;2.97;;;;;;;37.54;19.76;94548.00;5076875;28;20458;-80
2022/06/01 11:59:32;;;;;;;4.80;3.00;;;;;;;38.93;18.02;94545.25;5081604;28;20504;-81
2022/06/01 12:02:01;;;;;;;5.60;2.87;;;;;;;39.57;17.75;94547.66;5082801;28;20440;-81
2022/06/01 12:04:47;;;;;;;3.73;3.30;;;;;;;39.18;18.28;94537.25;5084888;28;21030;-81
2022/06/01 12:07:32;;;;;;;10.27;3.60;;;;;;;39.68;17.66;94536.75;5082891;28;20436;-81
2022/06/01 12:10:03;;;;;;;9.67;4.30;;;;;;;40.93;16.83;94536.31;5086443;28;20416;-81
2022/06/01 12:12:34;;;;;;;5.77;3.10;;;;;;;39.67;17.96;94539.88;5084178;28;20465;-81
2022/06/01 12:15:04;;;;;;;3.70;3.50;;;;;;;39.98;17.43;94535.72;5080741;28;20456;-82
2022/06/01 12:17:36;;;;;;;3.10;2.80;;;;;;;40.59;16.66;94527.66;5082139;28;20448;-81
2022/06/01 12:20:10;;;;;;;4.37;2.50;;;;;;;40.40;17.07;94521.34;5072986;28;20405;-80
2022/06/01 12:29:08;;;;;;;3.50;3.07;;;;;;;41.29;16.32;94519.03;5080575;28;20445;-80
2022/06/01 12:31:56;;;;;;;4.30;2.83;;;;;;;41.72;16.18;94522.47;5093682;28;20439;-81
2022/06/01 12:34:29;;;;;;;7.90;3.33;;;;;;;41.89;15.58;94517.25;5079387;28;20479;-81
2022/06/01 12:37:15;;;;;;;6.17;2.70;;;;;;;40.87;15.92;94515.13;5086170;28;20803;-81
2022/06/01 12:39:47;;;;;;;3.90;3.07;;;;;;;40.69;16.44;94506.88;5078180;28;20465;-81
2022/06/01 12:42:34;;;;;;;4.20;2.90;;;;;;;40.87;16.36;94520.63;5084391;28;20449;-81
2022/06/01 12:45:05;;;;;;;2.80;2.60;;;;;;;41.03;15.56;94515.50;5065680;28;20424;-81